sensor_id;sensor_type;location;lat;lon;timestamp;P1;durP1;ratioP1;P2;durP2;ratioP2
50350;SDS011;36250;48.740;22.174;2023-02-24T00:01:31;33.75;;;18.02;;
50350;SDS011;36250;48.740;22.174;2023-02-24T00:04:02;34.22;;;18.23;;
50350;SDS011;36250;48.740;22.174;2023-02-24T00:06:31;34.33;;;18.80;;
50350;SDS011;36250;48.740;22.174;2023-02-24T00:09:08;34.45;;;17.55;;
50350;SDS011;36250;48.740;22.174;2023-02-24T00:12:01;39.45;;;20.85;;
50350;SDS011;36250;48.740;22.174;2023-02-24T00:14:28;55.97;;;26.60;;
50350;SDS011;36250;48.740;22.174;2023-02-24T00:16:58;49.95;;;24.35;;
50350;SDS011;36250;48.740;22.174;2023-02-24T00:19:24;53.13;;;23.50;;
50350;SDS011;36250;48.740;22.174;2023-02-24T00:21:53;43.08;;;20.55;;
50350;SDS011;36250;48.740;22.174;2023-02-24T00:24:18;41.78;;;20.92;;
50350;SDS011;36250;48.740;22.174;2023-02-24T00:26:45;39.05;;;18.55;;
50350;SDS011;36250;48.740;22.174;2023-02-24T00:31:43;25.53;;;13.27;;
50350;SDS011;36250;48.740;22.174;2023-02-24T00:34:10;23.48;;;13.32;;
50350;SDS011;36250;48.740;22.174;2023-02-24T00:36:36;27.58;;;13.35;;
50350;SDS011;36250;48.740;22.174;2023-02-24T00:39:03;70.57;;;25.60;;
50350;SDS011;36250;48.740;22.174;2023-02-24T00:41:34;50.58;;;23.45;;
50350;SDS011;36250;48.740;22.174;2023-02-24T00:44:03;55.67;;;22.75;;
50350;SDS011;36250;48.740;22.174;2023-02-24T00:46:31;45.08;;;22.05;;
50350;SDS011;36250;48.740;22.174;2023-02-24T00:49:06;42.97;;;22.20;;
50350;SDS011;36250;48.740;22.174;2023-02-24T00:51:37;41.72;;;20.10;;
50350;SDS011;36250;48.740;22.174;2023-02-24T00:54:04;40.83;;;19.52;;
50350;SDS011;36250;48.740;22.174;2023-02-24T00:56:30;41.47;;;19.45;;
50350;SDS011;36250;48.740;22.174;2023-02-24T00:58:56;36.28;;;16.60;;
50350;SDS011;36250;48.740;22.174;2023-02-24T01:01:24;31.02;;;16.80;;
50350;SDS011;36250;48.740;22.174;2023-02-24T01:03:52;29.83;;;14.90;;
50350;SDS011;36250;48.740;22.174;2023-02-24T01:06:18;27.73;;;13.98;;
50350;SDS011;36250;48.740;22.174;2023-02-24T01:08:49;27.70;;;13.50;;
50350;SDS011;36250;48.740;22.174;2023-02-24T01:11:16;25.17;;;13.07;;
50350;SDS011;36250;48.740;22.174;2023-02-24T01:14:05;29.80;;;14.45;;
50350;SDS011;36250;48.740;22.174;2023-02-24T01:16:33;31.90;;;16.70;;
50350;SDS011;36250;48.740;22.174;2023-02-24T01:18:59;36.47;;;17.00;;
50350;SDS011;36250;48.740;22.174;2023-02-24T01:21:25;32.80;;;16.73;;
50350;SDS011;36250;48.740;22.174;2023-02-24T01:23:50;24.10;;;14.82;;
50350;SDS011;36250;48.740;22.174;2023-02-24T01:26:16;27.33;;;15.50;;
50350;SDS011;36250;48.740;22.174;2023-02-24T01:28:43;32.20;;;16.65;;
50350;SDS011;36250;48.740;22.174;2023-02-24T01:31:10;35.42;;;16.38;;
50350;SDS011;36250;48.740;22.174;2023-02-24T01:33:36;52.30;;;25.33;;
50350;SDS011;36250;48.740;22.174;2023-02-24T01:36:10;36.35;;;18.10;;
50350;SDS011;36250;48.740;22.174;2023-02-24T01:38:36;45.03;;;22.85;;
50350;SDS011;36250;48.740;22.174;2023-02-24T01:41:03;45.90;;;20.40;;
50350;SDS011;36250;48.740;22.174;2023-02-24T01:43:30;42.70;;;22.55;;
50350;SDS011;36250;48.740;22.174;2023-02-24T01:45:56;40.67;;;21.63;;
50350;SDS011;36250;48.740;22.174;2023-02-24T01:48:22;44.40;;;21.52;;
50350;SDS011;36250;48.740;22.174;2023-02-24T01:50:48;35.15;;;18.55;;
50350;SDS011;36250;48.740;22.174;2023-02-24T01:53:14;36.67;;;20.48;;
50350;SDS011;36250;48.740;22.174;2023-02-24T01:55:40;42.13;;;21.38;;
50350;SDS011;36250;48.740;22.174;2023-02-24T01:58:12;50.10;;;23.70;;
50350;SDS011;36250;48.740;22.174;2023-02-24T02:00:44;48.55;;;24.75;;
50350;SDS011;36250;48.740;22.174;2023-02-24T02:03:22;49.58;;;21.98;;
50350;SDS011;36250;48.740;22.174;2023-02-24T02:05:55;37.97;;;18.43;;
50350;SDS011;36250;48.740;22.174;2023-02-24T02:08:25;40.20;;;19.55;;
50350;SDS011;36250;48.740;22.174;2023-02-24T02:10:52;37.30;;;19.58;;
50350;SDS011;36250;48.740;22.174;2023-02-24T02:13:23;50.33;;;24.80;;
50350;SDS011;36250;48.740;22.174;2023-02-24T02:15:52;55.13;;;25.65;;
50350;SDS011;36250;48.740;22.174;2023-02-24T02:18:48;55.00;;;27.33;;
50350;SDS011;36250;48.740;22.174;2023-02-24T02:24:07;47.05;;;25.92;;
50350;SDS011;36250;48.740;22.174;2023-02-24T02:32:20;44.47;;;24.23;;
50350;SDS011;36250;48.740;22.174;2023-02-24T02:40:25;42.53;;;22.30;;
50350;SDS011;36250;48.740;22.174;2023-02-24T02:42:58;38.03;;;18.75;;
50350;SDS011;36250;48.740;22.174;2023-02-24T02:45:33;24.95;;;14.73;;
50350;SDS011;36250;48.740;22.174;2023-02-24T02:48:18;21.40;;;13.32;;
50350;SDS011;36250;48.740;22.174;2023-02-24T02:51:02;24.00;;;12.07;;
50350;SDS011;36250;48.740;22.174;2023-02-24T02:53:33;37.28;;;17.75;;
50350;SDS011;36250;48.740;22.174;2023-02-24T02:56:11;46.67;;;21.15;;
50350;SDS011;36250;48.740;22.174;2023-02-24T02:58:44;27.13;;;14.82;;
50350;SDS011;36250;48.740;22.174;2023-02-24T03:01:14;30.15;;;14.77;;
50350;SDS011;36250;48.740;22.174;2023-02-24T03:03:45;26.92;;;13.63;;
50350;SDS011;36250;48.740;22.174;2023-02-24T03:06:16;35.78;;;16.15;;
50350;SDS011;36250;48.740;22.174;2023-02-24T03:08:50;31.73;;;16.75;;
50350;SDS011;36250;48.740;22.174;2023-02-24T03:11:21;21.33;;;12.88;;
50350;SDS011;36250;48.740;22.174;2023-02-24T03:13:47;33.22;;;15.23;;
50350;SDS011;36250;48.740;22.174;2023-02-24T03:16:15;28.67;;;15.30;;
50350;SDS011;36250;48.740;22.174;2023-02-24T03:18:43;23.95;;;13.93;;
50350;SDS011;36250;48.740;22.174;2023-02-24T03:21:26;24.50;;;13.40;;
50350;SDS011;36250;48.740;22.174;2023-02-24T03:23:57;29.02;;;16.73;;
50350;SDS011;36250;48.740;22.174;2023-02-24T03:29:12;33.08;;;17.02;;
50350;SDS011;36250;48.740;22.174;2023-02-24T03:31:43;36.85;;;19.25;;
50350;SDS011;36250;48.740;22.174;2023-02-24T03:36:40;38.00;;;21.77;;
50350;SDS011;36250;48.740;22.174;2023-02-24T03:39:07;35.47;;;19.52;;
50350;SDS011;36250;48.740;22.174;2023-02-24T03:41:41;35.13;;;20.00;;
50350;SDS011;36250;48.740;22.174;2023-02-24T03:44:13;35.20;;;18.98;;
50350;SDS011;36250;48.740;22.174;2023-02-24T03:46:39;31.15;;;18.95;;
50350;SDS011;36250;48.740;22.174;2023-02-24T03:49:10;29.20;;;17.63;;
50350;SDS011;36250;48.740;22.174;2023-02-24T03:51:37;36.00;;;18.33;;
50350;SDS011;36250;48.740;22.174;2023-02-24T04:02:19;32.58;;;18.42;;
50350;SDS011;36250;48.740;22.174;2023-02-24T04:07:39;35.20;;;20.00;;
50350;SDS011;36250;48.740;22.174;2023-02-24T04:10:23;32.42;;;17.02;;
50350;SDS011;36250;48.740;22.174;2023-02-24T04:16:00;31.13;;;16.27;;
50350;SDS011;36250;48.740;22.174;2023-02-24T04:18:32;25.63;;;15.68;;
50350;SDS011;36250;48.740;22.174;2023-02-24T04:20:59;31.88;;;17.70;;
50350;SDS011;36250;48.740;22.174;2023-02-24T04:23:35;30.23;;;16.92;;
50350;SDS011;36250;48.740;22.174;2023-02-24T04:26:04;30.73;;;16.17;;
50350;SDS011;36250;48.740;22.174;2023-02-24T04:28:30;29.92;;;15.70;;
50350;SDS011;36250;48.740;22.174;2023-02-24T04:30:59;32.78;;;17.35;;
50350;SDS011;36250;48.740;22.174;2023-02-24T04:33:30;29.17;;;16.77;;
50350;SDS011;36250;48.740;22.174;2023-02-24T04:35:57;28.38;;;15.93;;
50350;SDS011;36250;48.740;22.174;2023-02-24T04:38:23;29.55;;;15.88;;
50350;SDS011;36250;48.740;22.174;2023-02-24T04:40:48;32.33;;;14.80;;
50350;SDS011;36250;48.740;22.174;2023-02-24T04:43:14;29.33;;;14.60;;
50350;SDS011;36250;48.740;22.174;2023-02-24T04:45:40;25.42;;;14.70;;
50350;SDS011;36250;48.740;22.174;2023-02-24T04:48:06;24.88;;;14.38;;
50350;SDS011;36250;48.740;22.174;2023-02-24T04:50:37;24.10;;;13.60;;
50350;SDS011;36250;48.740;22.174;2023-02-24T04:53:08;23.88;;;13.75;;
50350;SDS011;36250;48.740;22.174;2023-02-24T04:55:37;30.33;;;14.43;;
50350;SDS011;36250;48.740;22.174;2023-02-24T04:58:11;29.95;;;15.02;;
50350;SDS011;36250;48.740;22.174;2023-02-24T05:00:38;31.30;;;16.65;;
50350;SDS011;36250;48.740;22.174;2023-02-24T05:03:06;33.88;;;18.20;;
50350;SDS011;36250;48.740;22.174;2023-02-24T05:05:34;30.88;;;18.33;;
50350;SDS011;36250;48.740;22.174;2023-02-24T05:08:03;34.33;;;19.10;;
50350;SDS011;36250;48.740;22.174;2023-02-24T05:10:35;30.70;;;17.80;;
50350;SDS011;36250;48.740;22.174;2023-02-24T05:15:30;35.95;;;18.05;;
50350;SDS011;36250;48.740;22.174;2023-02-24T05:18:00;31.80;;;17.75;;
50350;SDS011;36250;48.740;22.174;2023-02-24T05:20:31;36.90;;;17.58;;
50350;SDS011;36250;48.740;22.174;2023-02-24T05:23:18;32.67;;;18.15;;
50350;SDS011;36250;48.740;22.174;2023-02-24T05:25:48;39.63;;;20.00;;
50350;SDS011;36250;48.740;22.174;2023-02-24T05:28:13;35.80;;;21.08;;
50350;SDS011;36250;48.740;22.174;2023-02-24T05:30:39;36.40;;;19.92;;
50350;SDS011;36250;48.740;22.174;2023-02-24T05:33:04;34.30;;;18.98;;
50350;SDS011;36250;48.740;22.174;2023-02-24T05:35:34;36.65;;;19.02;;
50350;SDS011;36250;48.740;22.174;2023-02-24T05:38:00;33.75;;;20.63;;
50350;SDS011;36250;48.740;22.174;2023-02-24T05:40:26;65.45;;;37.17;;
50350;SDS011;36250;48.740;22.174;2023-02-24T05:42:52;49.97;;;26.85;;
50350;SDS011;36250;48.740;22.174;2023-02-24T05:45:17;47.63;;;27.15;;
50350;SDS011;36250;48.740;22.174;2023-02-24T05:47:42;46.47;;;26.58;;
50350;SDS011;36250;48.740;22.174;2023-02-24T05:50:11;45.90;;;24.70;;
50350;SDS011;36250;48.740;22.174;2023-02-24T05:52:37;46.83;;;24.58;;
50350;SDS011;36250;48.740;22.174;2023-02-24T05:55:03;45.22;;;24.08;;
50350;SDS011;36250;48.740;22.174;2023-02-24T05:57:30;46.70;;;24.35;;
50350;SDS011;36250;48.740;22.174;2023-02-24T05:59:59;53.17;;;27.58;;
50350;SDS011;36250;48.740;22.174;2023-02-24T06:02:33;56.13;;;27.60;;
50350;SDS011;36250;48.740;22.174;2023-02-24T06:05:01;58.33;;;27.15;;
50350;SDS011;36250;48.740;22.174;2023-02-24T06:07:29;56.53;;;28.30;;
50350;SDS011;36250;48.740;22.174;2023-02-24T06:09:59;44.15;;;24.05;;
50350;SDS011;36250;48.740;22.174;2023-02-24T06:14:52;49.17;;;24.77;;
50350;SDS011;36250;48.740;22.174;2023-02-24T06:17:18;41.10;;;22.40;;
50350;SDS011;36250;48.740;22.174;2023-02-24T06:19:45;43.58;;;21.75;;
50350;SDS011;36250;48.740;22.174;2023-02-24T06:22:14;41.10;;;20.30;;
50350;SDS011;36250;48.740;22.174;2023-02-24T06:24:40;38.45;;;20.23;;
50350;SDS011;36250;48.740;22.174;2023-02-24T06:27:08;36.58;;;18.75;;
50350;SDS011;36250;48.740;22.174;2023-02-24T06:29:35;34.50;;;17.33;;
50350;SDS011;36250;48.740;22.174;2023-02-24T06:32:01;30.75;;;17.20;;
50350;SDS011;36250;48.740;22.174;2023-02-24T06:34:38;29.42;;;17.77;;
50350;SDS011;36250;48.740;22.174;2023-02-24T06:37:06;29.25;;;18.10;;
50350;SDS011;36250;48.740;22.174;2023-02-24T06:39:32;32.75;;;16.58;;
50350;SDS011;36250;48.740;22.174;2023-02-24T06:41:58;30.85;;;18.00;;
50350;SDS011;36250;48.740;22.174;2023-02-24T06:44:32;36.75;;;19.17;;
50350;SDS011;36250;48.740;22.174;2023-02-24T06:46:59;32.53;;;17.08;;
50350;SDS011;36250;48.740;22.174;2023-02-24T06:49:25;28.27;;;16.65;;
50350;SDS011;36250;48.740;22.174;2023-02-24T06:51:51;29.13;;;17.17;;
50350;SDS011;36250;48.740;22.174;2023-02-24T06:54:18;34.28;;;17.75;;
50350;SDS011;36250;48.740;22.174;2023-02-24T06:56:48;31.17;;;17.98;;
50350;SDS011;36250;48.740;22.174;2023-02-24T06:59:13;40.80;;;17.50;;
50350;SDS011;36250;48.740;22.174;2023-02-24T07:01:45;34.63;;;16.40;;
50350;SDS011;36250;48.740;22.174;2023-02-24T07:04:12;28.50;;;16.50;;
50350;SDS011;36250;48.740;22.174;2023-02-24T07:06:39;30.75;;;16.98;;
50350;SDS011;36250;48.740;22.174;2023-02-24T07:09:07;28.25;;;15.52;;
50350;SDS011;36250;48.740;22.174;2023-02-24T07:11:35;36.38;;;17.05;;
50350;SDS011;36250;48.740;22.174;2023-02-24T07:14:01;28.38;;;16.05;;
50350;SDS011;36250;48.740;22.174;2023-02-24T07:16:29;32.70;;;17.73;;
50350;SDS011;36250;48.740;22.174;2023-02-24T07:18:58;30.80;;;19.17;;
50350;SDS011;36250;48.740;22.174;2023-02-24T07:21:37;27.13;;;16.97;;
50350;SDS011;36250;48.740;22.174;2023-02-24T07:24:05;38.17;;;17.90;;
50350;SDS011;36250;48.740;22.174;2023-02-24T07:26:31;34.22;;;18.38;;
50350;SDS011;36250;48.740;22.174;2023-02-24T07:28:57;28.88;;;17.73;;
50350;SDS011;36250;48.740;22.174;2023-02-24T07:31:23;34.28;;;18.27;;
50350;SDS011;36250;48.740;22.174;2023-02-24T07:33:52;40.75;;;20.42;;
50350;SDS011;36250;48.740;22.174;2023-02-24T07:36:20;36.38;;;19.58;;
50350;SDS011;36250;48.740;22.174;2023-02-24T07:38:48;35.88;;;19.20;;
50350;SDS011;36250;48.740;22.174;2023-02-24T07:41:18;40.13;;;20.20;;
50350;SDS011;36250;48.740;22.174;2023-02-24T07:43:46;40.55;;;21.23;;
50350;SDS011;36250;48.740;22.174;2023-02-24T07:46:17;35.83;;;21.48;;
50350;SDS011;36250;48.740;22.174;2023-02-24T07:48:45;35.75;;;19.52;;
50350;SDS011;36250;48.740;22.174;2023-02-24T07:51:12;34.35;;;19.48;;
50350;SDS011;36250;48.740;22.174;2023-02-24T07:53:39;38.33;;;20.60;;
50350;SDS011;36250;48.740;22.174;2023-02-24T07:56:12;36.65;;;20.90;;
50350;SDS011;36250;48.740;22.174;2023-02-24T07:58:44;33.38;;;19.80;;
50350;SDS011;36250;48.740;22.174;2023-02-24T08:01:14;38.35;;;19.10;;
50350;SDS011;36250;48.740;22.174;2023-02-24T08:03:54;42.53;;;20.88;;
50350;SDS011;36250;48.740;22.174;2023-02-24T08:06:21;43.97;;;25.02;;
50350;SDS011;36250;48.740;22.174;2023-02-24T08:08:52;36.78;;;20.80;;
50350;SDS011;36250;48.740;22.174;2023-02-24T08:11:25;39.22;;;21.38;;
50350;SDS011;36250;48.740;22.174;2023-02-24T08:13:59;35.85;;;20.17;;
50350;SDS011;36250;48.740;22.174;2023-02-24T08:16:27;43.22;;;21.40;;
50350;SDS011;36250;48.740;22.174;2023-02-24T08:19:06;43.70;;;20.13;;
50350;SDS011;36250;48.740;22.174;2023-02-24T08:21:37;41.30;;;20.70;;
50350;SDS011;36250;48.740;22.174;2023-02-24T08:24:06;41.92;;;21.15;;
50350;SDS011;36250;48.740;22.174;2023-02-24T08:26:41;41.08;;;19.92;;
50350;SDS011;36250;48.740;22.174;2023-02-24T08:29:08;34.33;;;21.05;;
50350;SDS011;36250;48.740;22.174;2023-02-24T08:31:34;38.72;;;19.80;;
50350;SDS011;36250;48.740;22.174;2023-02-24T08:33:59;42.97;;;20.85;;
50350;SDS011;36250;48.740;22.174;2023-02-24T08:36:24;37.95;;;20.90;;
50350;SDS011;36250;48.740;22.174;2023-02-24T08:38:50;35.53;;;19.40;;
50350;SDS011;36250;48.740;22.174;2023-02-24T08:41:17;37.28;;;19.00;;
50350;SDS011;36250;48.740;22.174;2023-02-24T08:43:46;41.85;;;20.45;;
50350;SDS011;36250;48.740;22.174;2023-02-24T08:46:14;38.85;;;21.90;;
50350;SDS011;36250;48.740;22.174;2023-02-24T08:48:51;33.58;;;20.17;;
50350;SDS011;36250;48.740;22.174;2023-02-24T08:51:31;36.63;;;21.08;;
50350;SDS011;36250;48.740;22.174;2023-02-24T08:54:08;32.03;;;20.05;;
50350;SDS011;36250;48.740;22.174;2023-02-24T08:56:39;32.20;;;19.83;;
50350;SDS011;36250;48.740;22.174;2023-02-24T08:59:13;31.73;;;19.15;;
50350;SDS011;36250;48.740;22.174;2023-02-24T09:01:59;34.83;;;19.98;;
50350;SDS011;36250;48.740;22.174;2023-02-24T09:04:46;31.33;;;18.85;;
50350;SDS011;36250;48.740;22.174;2023-02-24T09:09:48;38.17;;;21.88;;
50350;SDS011;36250;48.740;22.174;2023-02-24T09:12:14;37.75;;;19.80;;
50350;SDS011;36250;48.740;22.174;2023-02-24T09:14:48;36.58;;;20.35;;
50350;SDS011;36250;48.740;22.174;2023-02-24T09:17:27;33.75;;;19.23;;
50350;SDS011;36250;48.740;22.174;2023-02-24T09:20:22;42.33;;;19.73;;
50350;SDS011;36250;48.740;22.174;2023-02-24T09:22:52;34.63;;;19.00;;
50350;SDS011;36250;48.740;22.174;2023-02-24T09:25:28;36.45;;;19.55;;
50350;SDS011;36250;48.740;22.174;2023-02-24T09:28:06;35.97;;;19.48;;
50350;SDS011;36250;48.740;22.174;2023-02-24T09:30:34;35.50;;;21.27;;
50350;SDS011;36250;48.740;22.174;2023-02-24T09:33:08;40.45;;;20.60;;
50350;SDS011;36250;48.740;22.174;2023-02-24T09:35:45;36.47;;;20.55;;
50350;SDS011;36250;48.740;22.174;2023-02-24T09:38:16;38.63;;;21.27;;
50350;SDS011;36250;48.740;22.174;2023-02-24T09:40:44;34.78;;;19.30;;
50350;SDS011;36250;48.740;22.174;2023-02-24T09:43:13;49.80;;;28.48;;
50350;SDS011;36250;48.740;22.174;2023-02-24T09:46:03;36.72;;;22.35;;
50350;SDS011;36250;48.740;22.174;2023-02-24T09:48:41;52.22;;;27.00;;
50350;SDS011;36250;48.740;22.174;2023-02-24T09:51:18;37.65;;;24.08;;
50350;SDS011;36250;48.740;22.174;2023-02-24T09:53:53;55.17;;;30.60;;
50350;SDS011;36250;48.740;22.174;2023-02-24T10:07:27;38.03;;;23.95;;
50350;SDS011;36250;48.740;22.174;2023-02-24T10:10:13;42.15;;;25.40;;
50350;SDS011;36250;48.740;22.174;2023-02-24T10:13:18;41.38;;;24.60;;
50350;SDS011;36250;48.740;22.174;2023-02-24T10:15:45;46.92;;;26.23;;
50350;SDS011;36250;48.740;22.174;2023-02-24T10:18:27;47.33;;;24.80;;
50350;SDS011;36250;48.740;22.174;2023-02-24T10:21:04;40.65;;;24.63;;
50350;SDS011;36250;48.740;22.174;2023-02-24T10:26:42;46.80;;;27.88;;
50350;SDS011;36250;48.740;22.174;2023-02-24T10:29:26;46.90;;;28.27;;
50350;SDS011;36250;48.740;22.174;2023-02-24T10:32:06;54.65;;;31.05;;
50350;SDS011;36250;48.740;22.174;2023-02-24T10:34:47;56.67;;;35.47;;
50350;SDS011;36250;48.740;22.174;2023-02-24T10:37:16;61.03;;;38.35;;
50350;SDS011;36250;48.740;22.174;2023-02-24T10:39:47;61.40;;;34.88;;
50350;SDS011;36250;48.740;22.174;2023-02-24T10:42:28;50.33;;;31.30;;
50350;SDS011;36250;48.740;22.174;2023-02-24T10:45:12;58.03;;;32.20;;
50350;SDS011;36250;48.740;22.174;2023-02-24T10:47:42;53.38;;;30.00;;
50350;SDS011;36250;48.740;22.174;2023-02-24T10:52:48;54.08;;;33.10;;
50350;SDS011;36250;48.740;22.174;2023-02-24T10:58:33;56.47;;;32.92;;
50350;SDS011;36250;48.740;22.174;2023-02-24T11:01:17;55.92;;;32.95;;
50350;SDS011;36250;48.740;22.174;2023-02-24T11:04:15;51.15;;;30.65;;
50350;SDS011;36250;48.740;22.174;2023-02-24T11:07:14;58.13;;;32.70;;
50350;SDS011;36250;48.740;22.174;2023-02-24T11:10:00;65.07;;;34.22;;
50350;SDS011;36250;48.740;22.174;2023-02-24T11:12:36;52.90;;;32.15;;
50350;SDS011;36250;48.740;22.174;2023-02-24T11:15:29;49.25;;;30.98;;
50350;SDS011;36250;48.740;22.174;2023-02-24T11:18:24;56.53;;;34.13;;
50350;SDS011;36250;48.740;22.174;2023-02-24T11:20:55;49.40;;;31.67;;
50350;SDS011;36250;48.740;22.174;2023-02-24T11:23:26;59.00;;;34.30;;
50350;SDS011;36250;48.740;22.174;2023-02-24T11:25:57;57.40;;;34.17;;
50350;SDS011;36250;48.740;22.174;2023-02-24T11:42:22;56.97;;;34.10;;
50350;SDS011;36250;48.740;22.174;2023-02-24T11:44:59;59.85;;;36.10;;
50350;SDS011;36250;48.740;22.174;2023-02-24T11:48:09;60.35;;;36.05;;
50350;SDS011;36250;48.740;22.174;2023-02-24T11:51:01;61.08;;;33.55;;
50350;SDS011;36250;48.740;22.174;2023-02-24T11:56:29;58.35;;;34.65;;
50350;SDS011;36250;48.740;22.174;2023-02-24T11:59:09;64.90;;;36.75;;
50350;SDS011;36250;48.740;22.174;2023-02-24T12:01:55;61.10;;;35.20;;
50350;SDS011;36250;48.740;22.174;2023-02-24T12:04:32;67.05;;;36.60;;
50350;SDS011;36250;48.740;22.174;2023-02-24T12:07:04;69.05;;;38.88;;
50350;SDS011;36250;48.740;22.174;2023-02-24T12:09:46;69.80;;;39.90;;
50350;SDS011;36250;48.740;22.174;2023-02-24T12:12:29;68.55;;;37.78;;
50350;SDS011;36250;48.740;22.174;2023-02-24T12:15:03;76.95;;;40.53;;
50350;SDS011;36250;48.740;22.174;2023-02-24T12:17:40;74.57;;;40.85;;
50350;SDS011;36250;48.740;22.174;2023-02-24T12:20:20;75.53;;;41.72;;
50350;SDS011;36250;48.740;22.174;2023-02-24T12:22:54;86.90;;;45.05;;
50350;SDS011;36250;48.740;22.174;2023-02-24T12:25:26;79.35;;;44.22;;
50350;SDS011;36250;48.740;22.174;2023-02-24T12:41:28;94.55;;;47.35;;
50350;SDS011;36250;48.740;22.174;2023-02-24T12:44:07;96.82;;;52.45;;
50350;SDS011;36250;48.740;22.174;2023-02-24T12:50:12;92.25;;;51.50;;
50350;SDS011;36250;48.740;22.174;2023-02-24T12:52:48;94.53;;;48.67;;
50350;SDS011;36250;48.740;22.174;2023-02-24T12:57:54;96.78;;;52.58;;
50350;SDS011;36250;48.740;22.174;2023-02-24T13:00:24;91.97;;;50.15;;
50350;SDS011;36250;48.740;22.174;2023-02-24T13:05:49;89.38;;;51.13;;
50350;SDS011;36250;48.740;22.174;2023-02-24T13:08:27;83.03;;;47.95;;
50350;SDS011;36250;48.740;22.174;2023-02-24T13:11:06;84.47;;;45.70;;
50350;SDS011;36250;48.740;22.174;2023-02-24T13:13:58;83.47;;;46.70;;
50350;SDS011;36250;48.740;22.174;2023-02-24T13:16:26;83.20;;;45.17;;
50350;SDS011;36250;48.740;22.174;2023-02-24T13:19:03;91.32;;;46.28;;
50350;SDS011;36250;48.740;22.174;2023-02-24T13:21:31;87.07;;;47.05;;
50350;SDS011;36250;48.740;22.174;2023-02-24T13:23:58;74.47;;;44.60;;
50350;SDS011;36250;48.740;22.174;2023-02-24T13:26:26;85.75;;;46.78;;
50350;SDS011;36250;48.740;22.174;2023-02-24T13:28:58;75.30;;;44.55;;
50350;SDS011;36250;48.740;22.174;2023-02-24T13:31:25;85.17;;;44.03;;
50350;SDS011;36250;48.740;22.174;2023-02-24T13:33:51;84.00;;;46.70;;
50350;SDS011;36250;48.740;22.174;2023-02-24T13:36:23;81.65;;;46.05;;
50350;SDS011;36250;48.740;22.174;2023-02-24T13:43:58;72.85;;;42.47;;
50350;SDS011;36250;48.740;22.174;2023-02-24T13:46:26;78.70;;;45.50;;
50350;SDS011;36250;48.740;22.174;2023-02-24T13:51:52;83.78;;;44.53;;
50350;SDS011;36250;48.740;22.174;2023-02-24T13:54:26;83.10;;;43.72;;
50350;SDS011;36250;48.740;22.174;2023-02-24T14:00:22;89.97;;;51.38;;
50350;SDS011;36250;48.740;22.174;2023-02-24T14:02:56;90.60;;;49.67;;
50350;SDS011;36250;48.740;22.174;2023-02-24T14:05:27;92.53;;;51.25;;
50350;SDS011;36250;48.740;22.174;2023-02-24T14:07:55;87.03;;;49.03;;
50350;SDS011;36250;48.740;22.174;2023-02-24T14:10:23;95.00;;;51.92;;
50350;SDS011;36250;48.740;22.174;2023-02-24T14:15:42;94.78;;;50.15;;
50350;SDS011;36250;48.740;22.174;2023-02-24T14:18:20;85.35;;;49.47;;
50350;SDS011;36250;48.740;22.174;2023-02-24T14:20:50;82.05;;;46.13;;
50350;SDS011;36250;48.740;22.174;2023-02-24T14:23:21;95.82;;;52.35;;
50350;SDS011;36250;48.740;22.174;2023-02-24T14:26:03;94.70;;;49.58;;
50350;SDS011;36250;48.740;22.174;2023-02-24T14:28:32;94.50;;;49.45;;
50350;SDS011;36250;48.740;22.174;2023-02-24T14:31:05;90.32;;;50.90;;
50350;SDS011;36250;48.740;22.174;2023-02-24T14:33:34;88.82;;;48.28;;
50350;SDS011;36250;48.740;22.174;2023-02-24T14:36:05;94.30;;;50.67;;
50350;SDS011;36250;48.740;22.174;2023-02-24T14:38:38;92.25;;;49.80;;
50350;SDS011;36250;48.740;22.174;2023-02-24T14:41:06;94.93;;;50.95;;
50350;SDS011;36250;48.740;22.174;2023-02-24T14:43:41;107.63;;;58.90;;
50350;SDS011;36250;48.740;22.174;2023-02-24T14:46:07;116.35;;;56.80;;
50350;SDS011;36250;48.740;22.174;2023-02-24T14:48:32;94.13;;;52.90;;
50350;SDS011;36250;48.740;22.174;2023-02-24T14:51:00;95.28;;;51.47;;
50350;SDS011;36250;48.740;22.174;2023-02-24T14:53:29;92.05;;;50.38;;
50350;SDS011;36250;48.740;22.174;2023-02-24T14:55:56;93.82;;;53.25;;
50350;SDS011;36250;48.740;22.174;2023-02-24T15:01:13;102.22;;;54.35;;
50350;SDS011;36250;48.740;22.174;2023-02-24T15:03:49;97.38;;;56.17;;
50350;SDS011;36250;48.740;22.174;2023-02-24T15:06:24;88.00;;;51.33;;
50350;SDS011;36250;48.740;22.174;2023-02-24T15:08:56;93.82;;;51.70;;
50350;SDS011;36250;48.740;22.174;2023-02-24T15:11:22;88.95;;;49.72;;
50350;SDS011;36250;48.740;22.174;2023-02-24T15:14:00;91.80;;;48.05;;
50350;SDS011;36250;48.740;22.174;2023-02-24T15:16:37;87.50;;;51.20;;
50350;SDS011;36250;48.740;22.174;2023-02-24T15:25:11;91.43;;;52.13;;
50350;SDS011;36250;48.740;22.174;2023-02-24T15:30:33;89.80;;;50.10;;
50350;SDS011;36250;48.740;22.174;2023-02-24T15:35:32;102.25;;;55.35;;
50350;SDS011;36250;48.740;22.174;2023-02-24T15:38:01;93.28;;;53.38;;
50350;SDS011;36250;48.740;22.174;2023-02-24T15:40:28;98.53;;;53.35;;
50350;SDS011;36250;48.740;22.174;2023-02-24T15:43:06;105.35;;;57.33;;
50350;SDS011;36250;48.740;22.174;2023-02-24T15:45:34;113.43;;;58.15;;
50350;SDS011;36250;48.740;22.174;2023-02-24T15:48:21;107.03;;;58.90;;
50350;SDS011;36250;48.740;22.174;2023-02-24T15:50:50;123.65;;;60.97;;
50350;SDS011;36250;48.740;22.174;2023-02-24T15:53:16;116.07;;;60.80;;
50350;SDS011;36250;48.740;22.174;2023-02-24T15:55:41;117.78;;;62.92;;
50350;SDS011;36250;48.740;22.174;2023-02-24T15:58:14;113.13;;;61.63;;
50350;SDS011;36250;48.740;22.174;2023-02-24T16:00:42;117.03;;;63.67;;
50350;SDS011;36250;48.740;22.174;2023-02-24T16:03:09;106.88;;;58.90;;
50350;SDS011;36250;48.740;22.174;2023-02-24T16:05:35;97.50;;;55.90;;
50350;SDS011;36250;48.740;22.174;2023-02-24T16:08:01;110.90;;;60.22;;
50350;SDS011;36250;48.740;22.174;2023-02-24T16:10:27;107.65;;;61.05;;
50350;SDS011;36250;48.740;22.174;2023-02-24T16:12:56;114.93;;;66.20;;
50350;SDS011;36250;48.740;22.174;2023-02-24T16:15:29;112.88;;;62.10;;
50350;SDS011;36250;48.740;22.174;2023-02-24T16:17:57;121.35;;;65.63;;
50350;SDS011;36250;48.740;22.174;2023-02-24T16:20:26;115.30;;;65.45;;
50350;SDS011;36250;48.740;22.174;2023-02-24T16:23:02;105.13;;;59.38;;
50350;SDS011;36250;48.740;22.174;2023-02-24T16:25:29;109.45;;;60.60;;
50350;SDS011;36250;48.740;22.174;2023-02-24T16:28:00;112.32;;;62.25;;
50350;SDS011;36250;48.740;22.174;2023-02-24T16:30:26;102.18;;;59.90;;
50350;SDS011;36250;48.740;22.174;2023-02-24T16:32:54;99.05;;;58.20;;
50350;SDS011;36250;48.740;22.174;2023-02-24T16:35:22;117.70;;;62.08;;
50350;SDS011;36250;48.740;22.174;2023-02-24T16:37:48;96.57;;;58.05;;
50350;SDS011;36250;48.740;22.174;2023-02-24T16:40:21;107.00;;;59.22;;
50350;SDS011;36250;48.740;22.174;2023-02-24T16:42:47;106.68;;;58.35;;
50350;SDS011;36250;48.740;22.174;2023-02-24T16:45:13;104.00;;;60.05;;